Time;durP1;ratioP1;P1;durP2;ratioP2;P2;SDS_P1;SDS_P2;PMS_P1;PMS_P2;Temp;Humidity;BMP_temperature;BMP_pressure;BME280_temperature;BME280_humidity;BME280_pressure;Samples;Min_cycle;Max_cycle;Signal;HPM_P1;HPM_P2
2024/01/01 00:00:35;;;;;;;14.57;3.93;;;8.70;7.10;;;;;;5096334;28;20218;-86
2024/01/01 00:03:00;;;;;;;13.33;3.97;;;8.70;11.70;;;;;;5096708;28;20217;-88
2024/01/01 00:05:26;;;;;;;11.90;3.83;;;8.60;17.50;;;;;;5097155;28;20536;-88
2024/01/01 00:07:51;;;;;;;12.07;3.47;;;8.50;21.30;;;;;;5096050;28;20175;-89
2024/01/01 00:10:19;;;;;;;12.57;3.80;;;8.50;24.80;;;;;;5096177;28;20627;-86
2024/01/01 00:12:45;;;;;;;12.53;4.20;;;8.50;19.30;;;;;;5096032;28;20258;-89
2024/01/01 00:15:11;;;;;;;11.80;4.17;;;8.70;16.50;;;;;;5095672;28;20711;-89
2024/01/01 00:17:38;;;;;;;12.97;4.07;;;8.60;23.20;;;;;;5095787;28;20207;-87
2024/01/01 00:20:05;;;;;;;14.33;4.07;;;8.50;24.90;;;;;;5095788;28;20200;-85
2024/01/01 00:22:31;;;;;;;11.47;3.57;;;8.40;26.90;;;;;;5096001;28;20229;-90
2024/01/01 00:24:58;;;;;;;13.23;3.20;;;8.50;29.70;;;;;;5095607;28;20226;-90
2024/01/01 00:27:24;;;;;;;13.40;3.60;;;8.40;26.80;;;;;;5097069;28;20225;-85
2024/01/01 00:29:50;;;;;;;12.20;3.57;;;8.40;29.40;;;;;;5095616;28;20180;-89
2024/01/01 00:32:18;;;;;;;12.50;3.40;;;8.40;32.20;;;;;;5095806;28;20266;-92
2024/01/01 00:34:47;;;;;;;12.73;3.67;;;8.50;31.30;;;;;;5095757;28;20182;-90
2024/01/01 00:37:12;;;;;;;10.93;3.07;;;8.50;28.20;;;;;;5095291;28;20769;-89
2024/01/01 00:39:38;;;;;;;17.47;3.90;;;8.40;35.00;;;;;;5095829;28;20199;-89
2024/01/01 00:42:05;;;;;;;10.37;3.47;;;8.40;41.80;;;;;;5095166;28;20172;-90
2024/01/01 00:44:31;;;;;;;14.43;4.53;;;8.40;42.80;;;;;;5096371;28;20230;-88
2024/01/01 00:46:58;;;;;;;15.53;3.03;;;8.50;35.00;;;;;;5094968;28;20175;-88
2024/01/01 00:49:24;;;;;;;13.13;3.60;;;8.50;32.00;;;;;;5095277;28;20180;-89
2024/01/01 00:51:49;;;;;;;11.80;3.30;;;8.50;30.00;;;;;;5095146;28;20243;-86
2024/01/01 00:54:15;;;;;;;19.00;3.87;;;8.60;29.50;;;;;;5095665;28;20179;-89
2024/01/01 00:56:41;;;;;;;13.23;4.33;;;8.60;30.20;;;;;;5094918;28;20269;-87
2024/01/01 00:59:06;;;;;;;16.97;4.90;;;8.60;28.30;;;;;;5095125;28;20658;-87
2024/01/01 01:01:32;;;;;;;14.60;4.03;;;8.60;34.60;;;;;;5095366;28;20205;-87
2024/01/01 01:03:58;;;;;;;14.57;4.57;;;8.60;26.40;;;;;;5095057;28;20275;-89
2024/01/01 01:06:23;;;;;;;15.63;6.20;;;8.60;24.70;;;;;;5094842;28;20642;-90
2024/01/01 01:08:49;;;;;;;14.57;3.60;;;8.60;18.80;;;;;;5095129;28;20274;-88
2024/01/01 01:11:15;;;;;;;11.50;3.63;;;8.60;13.80;;;;;;5094918;28;20182;-89
2024/01/01 01:13:41;;;;;;;15.50;4.10;;;8.50;21.50;;;;;;5094897;28;20627;-87
2024/01/01 01:16:08;;;;;;;14.17;3.40;;;8.50;21.70;;;;;;5094875;28;20176;-88
2024/01/01 01:18:34;;;;;;;13.23;3.33;;;8.50;19.40;;;;;;5094602;28;20221;-87
2024/01/01 01:20:59;;;;;;;16.03;3.50;;;8.50;17.80;;;;;;5094920;28;20171;-86
2024/01/01 01:23:25;;;;;;;13.10;7.03;;;8.50;16.80;;;;;;5094743;28;20696;-85
2024/01/01 01:25:51;;;;;;;11.37;4.10;;;8.50;15.30;;;;;;5094313;28;20676;-89
2024/01/01 01:28:23;;;;;;;16.10;3.50;;;8.50;14.60;;;;;;5095671;28;20541;-87
2024/01/01 01:30:49;;;;;;;11.57;3.93;;;8.40;20.50;;;;;;5095037;28;20259;-86
2024/01/01 01:33:14;;;;;;;10.73;3.30;;;8.40;22.90;;;;;;5094446;28;20207;-87
2024/01/01 01:35:40;;;;;;;9.47;2.80;;;8.40;27.80;;;;;;5093878;28;20522;-87
2024/01/01 01:38:07;;;;;;;11.07;3.27;;;8.40;32.80;;;;;;5094475;28;20214;-86
2024/01/01 01:40:32;;;;;;;13.43;3.43;;;8.30;37.70;;;;;;5094479;28;20666;-88
2024/01/01 01:42:58;;;;;;;15.40;3.70;;;8.30;39.70;;;;;;5093894;28;20262;-89
2024/01/01 01:45:25;;;;;;;10.90;3.43;;;8.30;32.50;;;;;;5094653;28;20676;-87
2024/01/01 01:47:54;;;;;;;11.37;2.73;;;8.30;24.90;;;;;;5094190;28;20305;-87
2024/01/01 01:50:21;;;;;;;13.50;3.50;;;8.40;17.50;;;;;;5093553;28;20171;-86
2024/01/01 01:52:48;;;;;;;15.23;3.60;;;8.40;1.00;;;;;;5094223;28;20171;-89
2024/01/01 01:55:15;;;;;;;14.47;2.93;;;8.40;1.00;;;;;;5094287;28;20172;-90
2024/01/01 01:57:43;;;;;;;15.23;3.33;;;8.50;1.00;;;;;;5092751;28;20306;-89
2024/01/01 02:00:10;;;;;;;11.90;3.13;;;8.50;1.00;;;;;;5100048;28;20171;-85
2024/01/01 02:02:35;;;;;;;11.17;2.70;;;8.50;1.00;;;;;;5106488;28;20164;-83
2024/01/01 02:05:04;;;;;;;12.57;3.33;;;8.50;1.00;;;;;;5104897;28;20258;-83
2024/01/01 02:07:30;;;;;;;13.37;3.20;;;8.50;1.00;;;;;;5104084;28;20183;-85
2024/01/01 02:09:57;;;;;;;11.77;2.80;;;8.40;1.00;;;;;;5101912;28;20172;-89
2024/01/01 02:12:22;;;;;;;13.80;3.20;;;8.50;1.00;;;;;;5096321;28;20175;-87
2024/01/01 02:14:51;;;;;;;13.07;3.23;;;8.40;1.00;;;;;;5097308;28;20172;-88
2024/01/01 02:17:17;;;;;;;11.13;2.53;;;8.50;1.00;;;;;;5093350;28;20321;-90
2024/01/01 02:19:42;;;;;;;9.07;3.10;;;8.40;1.00;;;;;;5093402;28;20163;-86
2024/01/01 02:22:08;;;;;;;10.87;3.07;;;8.50;1.00;;;;;;5093810;28;20174;-89
2024/01/01 02:24:34;;;;;;;13.77;3.10;;;8.50;1.00;;;;;;5094429;28;20556;-88
2024/01/01 02:26:59;;;;;;;10.87;2.70;;;8.50;1.00;;;;;;5095738;28;20584;-87
2024/01/01 02:29:25;;;;;;;22.17;10.37;;;8.40;1.00;;;;;;5094152;28;20526;-86
2024/01/01 02:31:51;;;;;;;13.70;5.57;;;8.50;1.00;;;;;;5094932;28;20629;-89
2024/01/01 02:34:18;;;;;;;16.53;5.43;;;8.40;1.00;;;;;;5092878;28;20178;-87
2024/01/01 02:36:44;;;;;;;11.50;4.20;;;8.50;1.00;;;;;;5095232;28;20207;-87
2024/01/01 02:39:12;;;;;;;17.00;5.83;;;8.50;1.00;;;;;;5092984;28;20185;-87
2024/01/01 02:41:39;;;;;;;15.80;5.27;;;8.50;1.00;;;;;;5092994;28;20249;-89
2024/01/01 02:44:05;;;;;;;23.20;10.03;;;8.50;1.00;;;;;;5097679;28;20175;-89
2024/01/01 02:46:31;;;;;;;21.83;9.13;;;8.40;1.00;;;;;;5099878;28;20168;-88
2024/01/01 02:48:57;;;;;;;23.80;9.47;;;8.30;1.00;;;;;;5097546;28;20691;-86
2024/01/01 02:51:22;;;;;;;14.30;4.50;;;8.20;1.00;;;;;;5093345;28;20210;-85
2024/01/01 02:53:48;;;;;;;18.50;7.40;;;8.20;1.50;;;;;;5092770;28;20171;-86
2024/01/01 02:56:23;;;;;;;16.57;5.17;;;8.10;5.30;;;;;;5092786;28;20652;-88
2024/01/01 02:58:49;;;;;;;16.13;5.67;;;8.10;12.60;;;;;;5093499;28;20237;-85
2024/01/01 03:01:15;;;;;;;19.97;7.17;;;8.10;4.70;;;;;;5092981;28;20614;-89
2024/01/01 03:03:41;;;;;;;16.17;4.83;;;8.20;3.80;;;;;;5092753;28;20203;-86
2024/01/01 03:06:07;;;;;;;22.37;6.80;;;8.20;1.00;;;;;;5092877;28;20180;-89
2024/01/01 03:08:36;;;;;;;28.70;8.23;;;8.20;1.00;;;;;;5093451;28;20202;-90
2024/01/01 03:11:04;;;;;;;23.07;6.37;;;8.20;1.00;;;;;;5093042;28;20180;-89
2024/01/01 03:13:29;;;;;;;23.67;7.47;;;8.20;1.00;;;;;;5099331;28;20183;-85
2024/01/01 03:15:55;;;;;;;14.60;5.00;;;8.30;1.00;;;;;;5113729;28;20184;-84
2024/01/01 03:18:21;;;;;;;15.93;4.50;;;8.20;1.00;;;;;;5112542;28;20211;-88
2024/01/01 03:20:46;;;;;;;21.00;5.67;;;8.30;1.00;;;;;;5111295;28;20179;-88
2024/01/01 03:23:15;;;;;;;16.47;4.70;;;8.20;1.00;;;;;;5096805;28;20221;-86
2024/01/01 03:25:41;;;;;;;14.60;3.57;;;8.20;1.00;;;;;;5095653;28;20202;-87
2024/01/01 03:28:06;;;;;;;26.17;8.07;;;8.20;1.00;;;;;;5096098;28;20172;-89
2024/01/01 03:30:33;;;;;;;20.13;5.67;;;8.30;1.00;;;;;;5093460;28;20172;-86
2024/01/01 03:33:00;;;;;;;14.47;4.70;;;8.20;1.00;;;;;;5092393;28;20171;-86
2024/01/01 03:35:26;;;;;;;9.67;2.93;;;8.20;1.00;;;;;;5092030;28;20240;-86
2024/01/01 03:37:51;;;;;;;17.20;3.43;;;8.20;1.00;;;;;;5092552;28;20675;-89
2024/01/01 03:40:18;;;;;;;15.23;3.43;;;8.10;1.00;;;;;;5092037;28;20681;-86
2024/01/01 03:42:43;;;;;;;12.57;4.00;;;8.20;1.00;;;;;;5092828;28;20182;-85
2024/01/01 03:45:10;;;;;;;11.97;3.60;;;8.10;1.00;;;;;;5091731;28;20179;-87
2024/01/01 03:47:35;;;;;;;15.37;4.30;;;8.20;1.00;;;;;;5091672;28;20193;-86
2024/01/01 03:50:01;;;;;;;10.53;3.13;;;8.10;1.00;;;;;;5091662;28;20255;-86
2024/01/01 03:52:27;;;;;;;14.30;3.50;;;8.10;1.00;;;;;;5091860;28;20631;-86
2024/01/01 03:54:52;;;;;;;14.67;3.80;;;8.10;4.70;;;;;;5091981;28;20175;-86
2024/01/01 03:57:18;;;;;;;13.53;3.33;;;8.00;7.10;;;;;;5091893;28;20211;-89
2024/01/01 03:59:44;;;;;;;10.87;2.73;;;8.00;15.60;;;;;;5092519;28;20612;-85
2024/01/01 04:02:10;;;;;;;13.27;2.93;;;8.00;18.70;;;;;;5092359;28;20627;-87
2024/01/01 04:04:37;;;;;;;14.93;3.30;;;8.00;24.30;;;;;;5092488;28;20167;-87
2024/01/01 04:07:03;;;;;;;13.07;3.27;;;8.00;22.70;;;;;;5092015;28;20172;-91
2024/01/01 04:09:28;;;;;;;13.57;4.33;;;7.90;26.30;;;;;;5092111;28;20168;-89
2024/01/01 04:11:54;;;;;;;9.77;2.60;;;7.90;33.50;;;;;;5092913;28;20221;-86
2024/01/01 04:14:20;;;;;;;12.60;3.50;;;7.90;36.60;;;;;;5092015;28;20186;-89
2024/01/01 04:16:46;;;;;;;13.07;3.00;;;7.90;38.70;;;;;;5093294;28;20171;-89
2024/01/01 04:19:11;;;;;;;14.03;4.37;;;7.90;34.50;;;;;;5102662;28;20176;-91
2024/01/01 04:21:40;;;;;;;10.03;2.73;;;7.90;35.60;;;;;;5094653;28;20537;-89
2024/01/01 04:24:07;;;;;;;10.73;3.00;;;7.90;36.00;;;;;;5095735;28;20262;-87
2024/01/01 04:26:33;;;;;;;15.33;3.40;;;7.90;28.70;;;;;;5095290;28;20183;-87
2024/01/01 04:28:59;;;;;;;14.03;3.10;;;7.90;20.40;;;;;;5095225;28;20176;-88
2024/01/01 04:31:24;;;;;;;13.37;3.33;;;7.90;21.40;;;;;;5094614;28;20175;-86
2024/01/01 04:33:50;;;;;;;13.53;3.47;;;7.90;21.60;;;;;;5094864;28;20176;-88
2024/01/01 04:36:16;;;;;;;7.73;2.60;;;7.80;23.80;;;;;;5095144;28;20261;-86
2024/01/01 04:38:41;;;;;;;11.37;3.17;;;7.90;21.60;;;;;;5094900;28;20226;-86
2024/01/01 04:41:09;;;;;;;9.40;2.67;;;7.90;22.30;;;;;;5094570;28;20186;-88
2024/01/01 04:43:39;;;;;;;7.47;2.47;;;7.80;18.70;;;;;;5095339;28;20179;-85
2024/01/01 04:46:04;;;;;;;8.70;2.60;;;7.90;22.10;;;;;;5095337;28;20735;-85
2024/01/01 04:48:30;;;;;;;8.30;3.07;;;7.80;24.20;;;;;;5095177;28;20254;-86
2024/01/01 04:50:56;;;;;;;11.77;2.80;;;7.80;21.40;;;;;;5095052;28;20228;-85
2024/01/01 04:53:21;;;;;;;10.87;2.13;;;7.90;24.40;;;;;;5094820;28;20190;-85
2024/01/01 04:55:47;;;;;;;11.17;2.90;;;7.80;23.30;;;;;;5094619;28;20312;-87
2024/01/01 04:58:13;;;;;;;9.10;2.50;;;7.80;27.80;;;;;;5094537;28;20207;-87
2024/01/01 05:00:38;;;;;;;10.70;2.90;;;7.80;29.70;;;;;;5094467;28;20650;-84
2024/01/01 05:03:04;;;;;;;8.13;2.70;;;7.80;30.30;;;;;;5094512;28;20229;-85
2024/01/01 05:05:30;;;;;;;12.27;2.80;;;7.70;29.90;;;;;;5094205;28;20178;-85
2024/01/01 05:07:55;;;;;;;9.10;2.60;;;7.70;37.10;;;;;;5094156;28;20171;-87
2024/01/01 05:10:21;;;;;;;10.07;2.80;;;7.80;36.10;;;;;;5094265;28;20168;-87
2024/01/01 05:12:47;;;;;;;7.47;1.90;;;7.70;36.60;;;;;;5094263;28;20635;-87
2024/01/01 05:15:13;;;;;;;8.80;2.10;;;7.70;39.60;;;;;;5094766;28;20175;-85
2024/01/01 05:17:39;;;;;;;9.43;1.87;;;7.70;36.80;;;;;;5094316;28;20280;-89
2024/01/01 05:20:05;;;;;;;12.93;2.83;;;7.80;36.10;;;;;;5095784;28;20164;-87
2024/01/01 05:22:31;;;;;;;7.80;2.50;;;7.70;42.10;;;;;;5094184;28;20270;-86
2024/01/01 05:24:57;;;;;;;9.67;3.23;;;7.80;48.50;;;;;;5095548;28;20212;-87
2024/01/01 05:27:23;;;;;;;12.33;2.87;;;7.70;48.00;;;;;;5094494;28;20171;-90
2024/01/01 05:29:51;;;;;;;7.13;2.73;;;7.70;51.30;;;;;;5094607;28;20628;-86
2024/01/01 05:32:17;;;;;;;11.30;2.87;;;7.80;54.90;;;;;;5094060;28;20258;-88
2024/01/01 05:34:43;;;;;;;7.30;2.50;;;7.70;52.80;;;;;;5094051;28;20609;-86
2024/01/01 05:37:09;;;;;;;9.87;2.57;;;7.80;53.10;;;;;;5094579;28;20199;-86
2024/01/01 05:39:35;;;;;;;11.97;2.80;;;7.70;49.90;;;;;;5094675;28;20187;-88
2024/01/01 05:42:00;;;;;;;9.03;2.53;;;7.70;54.70;;;;;;5093916;28;20628;-88
2024/01/01 05:44:27;;;;;;;9.67;2.67;;;7.80;51.90;;;;;;5094497;28;20175;-88
2024/01/01 05:46:53;;;;;;;12.53;2.63;;;7.80;55.90;;;;;;5094176;28;20183;-87
2024/01/01 05:49:19;;;;;;;10.63;2.57;;;7.80;57.90;;;;;;5094268;28;20203;-87
2024/01/01 05:51:45;;;;;;;11.87;2.63;;;7.70;62.80;;;;;;5093672;28;20194;-86
2024/01/01 05:54:11;;;;;;;5.87;2.07;;;7.60;73.70;;;;;;5094025;28;20216;-87
2024/01/01 05:56:37;;;;;;;8.57;3.03;;;7.70;78.60;;;;;;5093584;28;20192;-86
2024/01/01 05:59:03;;;;;;;8.17;2.20;;;7.60;77.80;;;;;;5093934;28;20184;-86
2024/01/01 06:01:28;;;;;;;10.03;2.17;;;7.60;84.10;;;;;;5093553;28;20174;-85
2024/01/01 06:03:54;;;;;;;7.07;2.20;;;7.60;84.20;;;;;;5093672;28;20259;-85
2024/01/01 06:06:22;;;;;;;11.93;2.60;;;7.60;88.70;;;;;;5093923;28;20627;-87
2024/01/01 06:08:48;;;;;;;10.17;2.73;;;7.60;83.30;;;;;;5093545;28;20191;-89
2024/01/01 06:11:14;;;;;;;14.30;3.40;;;7.70;82.80;;;;;;5093666;28;20199;-88
2024/01/01 06:13:39;;;;;;;9.00;2.43;;;7.70;84.40;;;;;;5093617;28;20258;-87
2024/01/01 06:16:05;;;;;;;11.27;2.53;;;7.70;89.30;;;;;;5093629;28;20639;-88
2024/01/01 06:18:31;;;;;;;8.27;2.60;;;7.60;92.20;;;;;;5093797;28;20209;-88
2024/01/01 06:20:57;;;;;;;8.97;2.53;;;7.50;94.10;;;;;;5093576;28;20270;-89
2024/01/01 06:23:22;;;;;;;9.80;2.17;;;7.60;95.60;;;;;;5093320;28;20620;-88
2024/01/01 06:25:48;;;;;;;9.57;2.50;;;7.60;96.20;;;;;;5093190;28;20188;-87
2024/01/01 06:28:14;;;;;;;9.33;2.43;;;7.60;99.30;;;;;;5095630;28;20229;-85
2024/01/01 06:30:39;;;;;;;7.20;2.00;;;7.60;99.80;;;;;;5092749;28;20187;-87
2024/01/01 06:33:05;;;;;;;11.77;2.50;;;7.70;97.30;;;;;;5085835;28;20551;-84
2024/01/01 06:35:31;;;;;;;11.17;2.83;;;7.70;90.30;;;;;;5088080;28;20520;-85
2024/01/01 06:37:58;;;;;;;11.43;3.13;;;7.70;89.70;;;;;;5076370;28;20203;-89
2024/01/01 06:40:23;;;;;;;8.80;2.33;;;7.70;86.00;;;;;;5072199;28;20171;-87
2024/01/01 06:42:49;;;;;;;8.83;2.20;;;7.80;82.90;;;;;;5090372;28;20178;-89
2024/01/01 06:45:15;;;;;;;13.70;2.97;;;7.80;81.50;;;;;;5093467;28;20628;-88
2024/01/01 06:47:40;;;;;;;10.27;2.50;;;7.70;81.40;;;;;;5076941;28;20172;-86
2024/01/01 06:50:06;;;;;;;12.07;2.70;;;7.80;81.70;;;;;;5073146;28;20183;-89
2024/01/01 06:52:32;;;;;;;10.27;2.73;;;7.80;80.30;;;;;;5072973;28;20183;-89
2024/01/01 06:54:59;;;;;;;9.37;2.73;;;7.80;83.80;;;;;;5072540;28;20261;-86
2024/01/01 06:57:24;;;;;;;8.10;2.10;;;7.90;83.30;;;;;;5073925;28;20342;-88
2024/01/01 06:59:50;;;;;;;11.40;2.80;;;7.80;79.50;;;;;;5072914;28;20230;-88
2024/01/01 07:02:17;;;;;;;9.37;2.73;;;7.80;76.60;;;;;;5082397;28;20580;-87
2024/01/01 07:04:42;;;;;;;8.70;2.40;;;7.80;70.70;;;;;;5093074;28;20182;-87
2024/01/01 07:07:08;;;;;;;9.43;2.50;;;7.80;69.70;;;;;;5093561;28;20171;-85
2024/01/01 07:09:34;;;;;;;8.97;2.30;;;7.80;71.10;;;;;;5092679;28;20171;-85
2024/01/01 07:12:19;;;;;;;10.50;2.63;;;7.80;76.90;;;;;;5093453;28;20254;-86
2024/01/01 07:14:45;;;;;;;12.07;2.67;;;7.80;75.60;;;;;;5092994;28;20179;-89
2024/01/01 07:17:11;;;;;;;10.80;2.60;;;7.80;81.20;;;;;;5092778;28;20199;-88
2024/01/01 07:19:37;;;;;;;10.47;2.97;;;7.70;84.90;;;;;;5093059;28;20635;-90
2024/01/01 07:22:02;;;;;;;11.77;2.63;;;7.70;90.90;;;;;;5093026;28;20536;-88
2024/01/01 07:24:29;;;;;;;9.83;2.43;;;7.60;96.00;;;;;;5092756;28;20277;-86
2024/01/01 07:26:54;;;;;;;10.67;2.70;;;7.50;99.30;;;;;;5092727;28;20174;-89
2024/01/01 07:29:20;;;;;;;9.63;2.57;;;7.60;99.90;;;;;;5093463;28;20179;-89
2024/01/01 07:31:46;;;;;;;11.10;2.80;;;7.70;99.90;;;;;;5092993;28;20647;-88
2024/01/01 07:34:12;;;;;;;9.80;2.43;;;7.70;99.60;;;;;;5093311;28;20541;-90
2024/01/01 07:36:38;;;;;;;8.37;2.40;;;7.60;99.50;;;;;;5092928;28;20197;-88
2024/01/01 07:39:04;;;;;;;9.90;3.37;;;7.60;99.90;;;;;;5092434;28;20569;-88
2024/01/01 07:41:29;;;;;;;15.67;2.93;;;7.70;99.90;;;;;;5093064;28;20262;-85
2024/01/01 07:43:56;;;;;;;10.07;3.03;;;7.60;99.90;;;;;;5093362;28;20176;-87
2024/01/01 07:46:22;;;;;;;11.70;2.73;;;7.70;99.90;;;;;;5093757;28;20167;-85
2024/01/01 07:48:48;;;;;;;13.77;3.03;;;7.60;99.90;;;;;;5092397;28;20193;-86
2024/01/01 07:51:13;;;;;;;8.97;2.90;;;7.70;99.90;;;;;;5093436;28;20172;-89
2024/01/01 07:53:39;;;;;;;12.03;2.50;;;7.70;99.20;;;;;;5092918;28;20642;-86
2024/01/01 07:56:05;;;;;;;10.40;2.70;;;7.70;97.80;;;;;;5094541;28;20543;-87
2024/01/01 07:58:31;;;;;;;8.83;2.87;;;7.70;98.30;;;;;;5095876;28;20215;-87
2024/01/01 08:00:57;;;;;;;8.60;2.07;;;7.80;98.40;;;;;;5096159;28;20336;-86
2024/01/01 08:03:22;;;;;;;8.57;2.50;;;7.80;98.00;;;;;;5096354;28;20172;-88
2024/01/01 08:05:48;;;;;;;7.53;1.93;;;7.80;98.10;;;;;;5096268;28;20203;-86
2024/01/01 08:08:14;;;;;;;8.67;2.43;;;7.80;95.60;;;;;;5095709;28;20537;-87
2024/01/01 08:10:39;;;;;;;9.77;2.40;;;7.70;94.10;;;;;;5095615;28;20187;-89
2024/01/01 08:13:05;;;;;;;8.67;2.17;;;7.80;95.80;;;;;;5096305;28;20175;-88
2024/01/01 08:15:31;;;;;;;9.90;2.87;;;7.80;93.90;;;;;;5096115;28;20167;-87
2024/01/01 08:17:57;;;;;;;10.50;2.70;;;7.80;93.60;;;;;;5095972;28;20677;-87
2024/01/01 08:20:22;;;;;;;8.87;2.80;;;7.80;93.80;;;;;;5096040;28;20177;-86
2024/01/01 08:22:48;;;;;;;8.17;2.37;;;7.90;94.60;;;;;;5101460;28;20171;-87
2024/01/01 08:25:14;;;;;;;9.57;2.10;;;7.80;93.20;;;;;;5105148;28;20195;-86
2024/01/01 08:27:39;;;;;;;8.90;2.40;;;7.80;92.70;;;;;;5095683;28;20624;-87
2024/01/01 08:30:06;;;;;;;7.90;2.67;;;7.80;93.50;;;;;;5095099;28;20179;-87
2024/01/01 08:32:33;;;;;;;10.00;2.67;;;7.80;93.70;;;;;;5095743;28;20175;-86
2024/01/01 08:34:59;;;;;;;9.53;2.03;;;7.80;92.50;;;;;;5095330;28;20168;-87
2024/01/01 08:37:24;;;;;;;13.37;2.40;;;7.90;90.70;;;;;;5095104;28;20202;-89
2024/01/01 08:39:50;;;;;;;9.00;2.47;;;8.00;87.60;;;;;;5095308;28;20262;-87
2024/01/01 08:42:16;;;;;;;11.77;2.80;;;7.90;81.70;;;;;;5096218;28;20642;-89
2024/01/01 08:44:41;;;;;;;9.70;3.17;;;7.90;80.20;;;;;;5095251;28;20537;-88
2024/01/01 08:47:07;;;;;;;9.47;2.60;;;7.80;85.70;;;;;;5095299;28;20221;-86
2024/01/01 08:49:33;;;;;;;10.83;2.53;;;7.90;86.40;;;;;;5095088;28;20635;-89
2024/01/01 08:51:58;;;;;;;9.43;2.97;;;8.10;83.30;;;;;;5095011;28;20224;-89
2024/01/01 08:54:24;;;;;;;8.93;2.27;;;8.10;71.00;;;;;;5095373;28;20175;-86
2024/01/01 08:56:50;;;;;;;7.07;2.40;;;8.10;65.60;;;;;;5096037;28;20183;-86
2024/01/01 08:59:18;;;;;;;10.50;2.63;;;8.10;54.10;;;;;;5095185;28;20673;-88
2024/01/01 09:01:45;;;;;;;8.10;2.70;;;8.20;49.00;;;;;;5094892;28;20592;-88
2024/01/01 09:04:11;;;;;;;8.03;2.30;;;8.20;41.50;;;;;;5094906;28;20225;-88
2024/01/01 09:06:37;;;;;;;13.07;2.97;;;8.20;35.10;;;;;;5093896;28;20164;-89
2024/01/01 09:09:03;;;;;;;10.13;2.60;;;8.30;30.60;;;;;;5094520;28;20206;-87
2024/01/01 09:11:28;;;;;;;9.93;2.40;;;8.30;25.00;;;;;;5094268;28;20692;-88
2024/01/01 09:13:54;;;;;;;6.93;1.93;;;8.30;20.80;;;;;;5094851;28;20171;-88
2024/01/01 09:16:20;;;;;;;10.17;2.60;;;8.30;20.80;;;;;;5094457;28;20210;-88
2024/01/01 09:18:45;;;;;;;8.83;2.57;;;8.20;22.90;;;;;;5094539;28;20237;-89
2024/01/01 09:21:17;;;;;;;7.70;2.10;;;8.20;27.80;;;;;;5094527;28;20172;-87
2024/01/01 09:23:43;;;;;;;9.10;2.87;;;8.20;27.80;;;;;;5095584;28;20626;-89
2024/01/01 09:26:09;;;;;;;9.00;2.83;;;8.30;23.90;;;;;;5093993;28;20226;-88
2024/01/01 09:28:35;;;;;;;10.40;3.23;;;8.40;18.70;;;;;;5094507;28;20237;-88
2024/01/01 09:31:01;;;;;;;10.97;3.00;;;8.40;16.20;;;;;;5094866;28;20229;-86
2024/01/01 09:33:26;;;;;;;7.67;2.13;;;8.40;17.60;;;;;;5094274;28;20179;-89
2024/01/01 09:35:54;;;;;;;13.30;2.77;;;8.30;18.80;;;;;;5094235;28;20171;-89
2024/01/01 09:38:19;;;;;;;10.37;2.70;;;8.40;18.90;;;;;;5094229;28;20211;-87
2024/01/01 09:40:45;;;;;;;14.00;2.60;;;8.40;20.40;;;;;;5094101;28;20237;-87
2024/01/01 09:43:17;;;;;;;8.97;2.70;;;8.40;22.40;;;;;;5093806;28;20622;-86
2024/01/01 09:45:46;;;;;;;10.90;2.87;;;8.40;22.00;;;;;;5095515;28;20167;-86
2024/01/01 09:48:12;;;;;;;9.50;3.33;;;8.50;19.20;;;;;;5094091;28;20202;-88
2024/01/01 09:50:38;;;;;;;11.03;2.93;;;8.50;14.90;;;;;;5094552;28;20632;-89
2024/01/01 09:53:04;;;;;;;8.30;2.73;;;8.60;12.10;;;;;;5094502;28;20175;-89
2024/01/01 09:55:30;;;;;;;10.53;3.23;;;8.70;6.70;;;;;;5096759;28;20179;-89
2024/01/01 09:57:56;;;;;;;11.23;3.00;;;8.70;3.30;;;;;;5113328;28;20234;-86
2024/01/01 10:00:22;;;;;;;11.77;3.07;;;8.50;9.50;;;;;;5114204;28;20172;-85
2024/01/01 10:02:48;;;;;;;13.57;3.93;;;8.60;13.70;;;;;;5108404;28;20172;-88
2024/01/01 10:05:15;;;;;;;15.53;4.00;;;8.50;17.60;;;;;;5094182;28;20167;-87
2024/01/01 10:07:41;;;;;;;14.23;3.67;;;8.50;13.80;;;;;;5093493;28;20178;-87
2024/01/01 10:10:08;;;;;;;11.80;3.30;;;8.60;13.90;;;;;;5093903;28;20558;-86
2024/01/01 10:12:34;;;;;;;12.17;3.90;;;8.70;13.90;;;;;;5093563;28;20229;-87
2024/01/01 10:15:00;;;;;;;13.77;4.23;;;8.70;10.50;;;;;;5093674;28;20183;-87
2024/01/01 10:17:28;;;;;;;16.60;4.47;;;8.70;10.70;;;;;;5092913;28;20225;-86
2024/01/01 10:20:00;;;;;;;18.40;4.57;;;8.70;11.50;;;;;;5092846;28;20232;-89
2024/01/01 10:22:32;;;;;;;14.33;3.93;;;8.80;15.80;;;;;;5094115;28;20167;-89
2024/01/01 10:25:12;;;;;;;17.07;4.47;;;8.80;15.10;;;;;;5095246;28;20652;-87
2024/01/01 10:27:38;;;;;;;12.07;4.60;;;8.80;12.00;;;;;;5094236;28;20203;-89
2024/01/01 10:30:05;;;;;;;15.00;4.90;;;8.80;8.80;;;;;;5093903;28;20610;-86
2024/01/01 10:32:32;;;;;;;15.63;4.40;;;8.90;9.60;;;;;;5104451;28;20698;-83
2024/01/01 10:35:01;;;;;;;17.50;4.53;;;9.00;5.50;;;;;;5100582;28;20258;-86
2024/01/01 10:37:28;;;;;;;12.27;4.67;;;9.10;3.80;;;;;;5107062;28;20590;-86
2024/01/01 10:39:55;;;;;;;17.50;4.47;;;9.20;1.00;;;;;;5104917;28;20167;-87
2024/01/01 10:42:21;;;;;;;11.50;4.40;;;9.20;1.00;;;;;;5093424;28;20199;-84
2024/01/01 10:44:47;;;;;;;20.60;5.70;;;9.20;1.00;;;;;;5094036;28;20522;-86
2024/01/01 10:47:15;;;;;;;16.30;4.53;;;9.30;1.00;;;;;;5093148;28;20170;-88
2024/01/01 10:49:59;;;;;;;17.13;5.03;;;9.50;1.00;;;;;;5093468;28;20163;-91
2024/01/01 10:52:36;;;;;;;15.20;4.70;;;9.50;1.00;;;;;;5094808;28;20172;-86
2024/01/01 10:55:02;;;;;;;16.60;5.33;;;9.50;1.00;;;;;;5093292;28;20190;-87
2024/01/01 10:57:42;;;;;;;15.60;4.37;;;9.60;1.00;;;;;;5093841;28;20258;-86
2024/01/01 11:00:33;;;;;;;12.87;4.00;;;9.60;1.00;;;;;;5093810;28;20172;-88
2024/01/01 11:03:01;;;;;;;10.97;3.93;;;9.70;1.00;;;;;;5092637;28;20266;-89
2024/01/01 11:05:33;;;;;;;11.90;4.87;;;9.60;1.00;;;;;;5092775;28;20168;-86
2024/01/01 11:08:02;;;;;;;13.27;4.53;;;9.60;1.00;;;;;;5093555;28;20176;-88
2024/01/01 11:10:41;;;;;;;15.90;4.20;;;9.60;1.00;;;;;;5093161;28;20482;-85
2024/01/01 11:13:10;;;;;;;14.37;4.17;;;9.60;1.00;;;;;;5093142;28;20205;-88
2024/01/01 11:15:39;;;;;;;13.13;4.23;;;9.60;1.00;;;;;;5092528;28;20171;-85
2024/01/01 11:18:14;;;;;;;17.50;4.10;;;9.40;1.00;;;;;;5092354;28;20210;-85
2024/01/01 11:21:07;;;;;;;19.03;4.17;;;9.30;1.00;;;;;;5092761;28;20175;-87
2024/01/01 11:23:44;;;;;;;17.23;4.57;;;9.30;1.00;;;;;;5089204;28;20203;-86
2024/01/01 11:26:33;;;;;;;12.50;4.37;;;9.30;1.00;;;;;;5092269;28;20199;-86
2024/01/01 11:29:16;;;;;;;15.53;4.07;;;9.30;1.00;;;;;;5092647;28;20671;-85
2024/01/01 11:31:41;;;;;;;17.67;3.90;;;9.30;1.00;;;;;;5096765;28;20203;-87
2024/01/01 11:34:09;;;;;;;15.67;5.00;;;9.30;1.00;;;;;;5096572;28;20176;-86
2024/01/01 11:36:40;;;;;;;15.23;3.40;;;9.30;1.00;;;;;;5096882;28;20632;-87
2024/01/01 11:39:06;;;;;;;14.03;3.83;;;9.30;1.00;;;;;;5096448;28;20203;-87
2024/01/01 11:41:33;;;;;;;16.60;3.70;;;9.30;1.00;;;;;;5096397;28;20163;-88
2024/01/01 11:44:15;;;;;;;13.23;4.60;;;9.20;1.00;;;;;;5096289;28;20183;-89
2024/01/01 11:46:41;;;;;;;16.07;3.63;;;9.20;1.00;;;;;;5096318;28;20171;-88
2024/01/01 11:49:08;;;;;;;13.50;3.87;;;9.20;1.00;;;;;;5096719;28;20167;-85
2024/01/01 11:51:55;;;;;;;16.83;4.27;;;9.20;1.00;;;;;;5096229;28;20180;-87
2024/01/01 11:54:21;;;;;;;18.83;3.93;;;9.10;1.00;;;;;;5096424;28;20212;-86
2024/01/01 11:56:52;;;;;;;14.77;4.60;;;9.10;1.00;;;;;;5096664;28;20214;-88
2024/01/01 11:59:18;;;;;;;16.87;3.70;;;9.10;1.00;;;;;;5095998;28;20191;-86
2024/01/01 12:01:45;;;;;;;15.23;3.77;;;9.10;1.00;;;;;;5096908;28;20629;-87
2024/01/01 12:04:11;;;;;;;15.13;3.67;;;9.10;1.00;;;;;;5096281;28;20168;-86
2024/01/01 12:06:37;;;;;;;12.27;4.07;;;9.20;1.00;;;;;;5095859;28;20227;-88
2024/01/01 12:09:10;;;;;;;13.10;3.77;;;9.10;1.00;;;;;;5096108;28;20168;-87
2024/01/01 12:11:40;;;;;;;15.93;4.60;;;9.20;1.00;;;;;;5095720;28;20167;-87
2024/01/01 12:14:06;;;;;;;16.40;3.90;;;9.20;1.00;;;;;;5095599;28;20175;-87
2024/01/01 12:16:33;;;;;;;11.87;4.23;;;9.30;1.00;;;;;;5095689;28;20168;-90
2024/01/01 12:19:04;;;;;;;16.67;4.10;;;9.30;1.00;;;;;;5095899;28;20272;-87
2024/01/01 12:21:44;;;;;;;12.37;4.00;;;9.30;1.00;;;;;;5095598;28;20172;-85
2024/01/01 12:24:14;;;;;;;15.70;3.77;;;9.40;1.00;;;;;;5097199;28;20152;-87
2024/01/01 12:26:40;;;;;;;14.23;4.00;;;9.30;1.00;;;;;;5095841;28;20179;-88
2024/01/01 12:29:20;;;;;;;14.43;4.30;;;9.30;1.00;;;;;;5098768;28;20585;-88
2024/01/01 12:31:48;;;;;;;15.57;4.20;;;9.30;1.00;;;;;;5089289;28;20167;-87
2024/01/01 12:34:16;;;;;;;17.33;4.03;;;9.30;1.00;;;;;;5083932;28;20191;-91
2024/01/01 12:36:44;;;;;;;17.83;3.80;;;9.30;1.00;;;;;;5086579;28;20640;-88
2024/01/01 12:39:10;;;;;;;13.50;3.60;;;9.40;1.00;;;;;;5077516;28;20215;-90
2024/01/01 12:41:40;;;;;;;11.70;3.33;;;9.40;1.00;;;;;;5084833;28;20180;-89
2024/01/01 12:44:06;;;;;;;12.13;3.87;;;9.30;1.00;;;;;;5083793;28;20173;-89
2024/01/01 12:46:32;;;;;;;12.97;3.40;;;9.20;1.00;;;;;;5077555;28;20333;-86
2024/01/01 12:48:58;;;;;;;15.40;3.80;;;9.30;1.00;;;;;;5075495;28;20187;-94
2024/01/01 12:51:26;;;;;;;13.33;3.90;;;9.30;1.00;;;;;;5078998;28;20225;-91